UKHH/HRK METAR and TAF weather

Enter ICAO airport designator
Station Type Date Time Source
UKHH METAR 2021/07/26 16:00 UTC NOAA

UKHH 261600Z 08004MPS CAVOK 28/09 Q1020 R07/0///81 NOSIG


Station Type Date Time Source
UKHH Decoded METAR 2021/07/26 16:00 UTC NOAA

Kharkiv, Ukraine (UKHH) 49-58N 036-08E 155M
Jul 26, 2021 - 12:00 PM EDT / 2021.07.26 1600 UTC
Wind: from the E (080 degrees) at 9 MPH (8 KT):0
Visibility: greater than 7 mile(s):0
Temperature: 82 F (28 C)
Dew Point: 48 F (9 C)
Relative Humidity: 30%
Pressure (altimeter): 30.12 in. Hg (1020 hPa)
ob: UKHH 261600Z 08004MPS CAVOK 28/09 Q1020 R07/0///81 NOSIG
cycle: 16

Station Type Date Time Source
UKHH TAF 2021/07/26 12:09 UTC NOAA

TAF UKHH 261108Z 2612/2712 06004MPS 9999 SCT030 TX31/2612Z TN18/2703Z
TEMPO 2612/2618 10006G12MPS SCT026CB
TEMPO 2706/2712 09006G12MPS SCT026CB

Example: see airport list